createdAt,value
2023-04-26T00:00:49.892Z,5.20
2023-04-26T00:03:16.785Z,5.00
2023-04-26T00:05:43.570Z,4.82
2023-04-26T00:08:10.327Z,4.63
2023-04-26T00:10:37.256Z,5.23
2023-04-26T00:13:04.013Z,5.35
2023-04-26T00:15:31.044Z,5.30
2023-04-26T00:17:57.795Z,5.30
2023-04-26T00:20:24.836Z,5.20
2023-04-26T00:22:51.532Z,5.40
2023-04-26T00:25:18.331Z,5.60
2023-04-26T00:27:45.294Z,5.68
2023-04-26T00:30:12.440Z,5.20
2023-04-26T00:32:39.424Z,5.13
2023-04-26T00:35:06.871Z,5.37
2023-04-26T00:37:33.852Z,5.20
2023-04-26T00:40:00.547Z,5.30
2023-04-26T00:42:27.496Z,5.85
2023-04-26T00:44:57.446Z,5.28
2023-04-26T00:47:26.648Z,5.63
2023-04-26T00:49:53.513Z,5.30
2023-04-26T00:52:20.308Z,5.90
2023-04-26T00:54:48.756Z,6.00
2023-04-26T00:57:15.883Z,5.65
2023-04-26T00:59:42.729Z,5.70
2023-04-26T01:02:09.552Z,5.80
2023-04-26T01:04:37.219Z,6.18
2023-04-26T01:07:04.318Z,5.68
2023-04-26T01:09:32.291Z,5.93
2023-04-26T01:12:00.460Z,6.05
2023-04-26T01:14:28.207Z,6.05
2023-04-26T01:16:56.662Z,6.23
2023-04-26T01:19:23.943Z,6.15
2023-04-26T01:21:50.772Z,5.30
2023-04-26T01:24:17.433Z,6.40
2023-04-26T01:26:45.710Z,6.10
2023-04-26T01:29:18.490Z,6.28
2023-04-26T01:31:46.748Z,5.80
2023-04-26T01:34:14.273Z,5.72
2023-04-26T01:36:41.209Z,6.22
2023-04-26T01:39:09.262Z,6.10
2023-04-26T01:41:35.955Z,5.55
2023-04-26T01:44:02.722Z,6.40
2023-04-26T01:46:29.473Z,6.10
2023-04-26T01:48:57.344Z,6.15
2023-04-26T01:51:24.033Z,6.50
2023-04-26T01:53:50.788Z,6.57
2023-04-26T01:56:18.283Z,6.60
2023-04-26T01:58:45.173Z,6.68
2023-04-26T02:01:12.053Z,6.05
2023-04-26T02:03:38.939Z,6.57
2023-04-26T02:06:05.960Z,6.10
2023-04-26T02:08:32.779Z,6.10
2023-04-26T02:10:59.489Z,5.80
2023-04-26T02:13:26.358Z,5.93
2023-04-26T02:15:53.156Z,6.38
2023-04-26T02:18:22.085Z,5.85
2023-04-26T02:20:49.261Z,5.97
2023-04-26T02:23:16.576Z,6.10
2023-04-26T02:25:46.352Z,6.33
2023-04-26T02:28:13.410Z,6.10
2023-04-26T02:30:40.453Z,5.70
2023-04-26T02:33:07.292Z,5.88
2023-04-26T02:35:34.327Z,5.80
2023-04-26T02:38:01.193Z,6.45
2023-04-26T02:40:27.950Z,6.30
2023-04-26T02:42:54.649Z,6.32
2023-04-26T02:45:21.290Z,6.40
2023-04-26T02:47:48.024Z,6.65
2023-04-26T02:50:14.770Z,5.93
2023-04-26T02:52:41.666Z,6.32
2023-04-26T02:55:08.947Z,5.93
2023-04-26T02:57:35.698Z,6.47
2023-04-26T03:00:02.436Z,6.28
2023-04-26T03:02:29.162Z,6.13
2023-04-26T03:04:56.330Z,6.40
2023-04-26T03:07:23.021Z,6.97
2023-04-26T03:09:49.701Z,6.80
2023-04-26T03:12:16.518Z,6.38
2023-04-26T03:14:43.228Z,6.80
2023-04-26T03:17:09.862Z,5.85
2023-04-26T03:19:36.617Z,6.80
2023-04-26T03:22:03.454Z,6.30
2023-04-26T03:24:30.715Z,7.15
2023-04-26T03:26:57.916Z,7.00
2023-04-26T03:29:24.633Z,6.88
2023-04-26T03:31:51.343Z,6.45
2023-04-26T03:34:18.114Z,7.30
2023-04-26T03:36:44.782Z,7.07
2023-04-26T03:39:11.500Z,7.13
2023-04-26T03:41:40.385Z,6.90
2023-04-26T03:44:08.078Z,6.93
2023-04-26T03:46:34.841Z,6.57
2023-04-26T03:49:01.554Z,6.37
2023-04-26T03:51:28.275Z,6.30
2023-04-26T03:53:55.741Z,6.72
2023-04-26T03:56:22.429Z,6.82
2023-04-26T03:58:49.290Z,6.85
2023-04-26T04:01:16.028Z,6.75
2023-04-26T04:03:42.909Z,7.05
2023-04-26T04:06:09.711Z,6.32
2023-04-26T04:08:36.731Z,7.10
2023-04-26T04:11:03.809Z,6.68
2023-04-26T04:13:30.461Z,6.53
2023-04-26T04:15:57.550Z,6.30
2023-04-26T04:18:24.340Z,7.13
2023-04-26T04:20:51.051Z,7.30
2023-04-26T04:23:17.696Z,7.28
2023-04-26T04:25:45.511Z,6.80
2023-04-26T04:28:12.963Z,6.38
2023-04-26T04:30:39.777Z,6.82
2023-04-26T04:33:06.547Z,6.93
2023-04-26T04:35:34.235Z,6.57
2023-04-26T04:38:02.989Z,6.40
2023-04-26T04:40:31.372Z,7.25
2023-04-26T04:43:00.941Z,6.82
2023-04-26T04:45:28.477Z,7.23
2023-04-26T04:47:56.298Z,7.28
2023-04-26T04:50:23.513Z,7.38
2023-04-26T04:52:50.257Z,7.00
2023-04-26T04:55:16.933Z,6.95
2023-04-26T04:57:43.668Z,7.00
2023-04-26T05:00:12.551Z,7.50
2023-04-26T05:02:39.530Z,8.10
2023-04-26T05:05:06.921Z,7.00
2023-04-26T05:07:34.266Z,6.60
2023-04-26T05:10:02.039Z,6.50
2023-04-26T05:12:28.753Z,7.05
2023-04-26T05:14:55.709Z,7.70
2023-04-26T05:17:22.511Z,6.15
2023-04-26T05:19:49.322Z,5.65
2023-04-26T05:22:18.409Z,4.93
2023-04-26T05:24:46.904Z,4.88
2023-04-26T05:27:14.292Z,4.78
2023-04-26T05:29:41.591Z,4.45
2023-04-26T05:32:08.641Z,4.40
2023-04-26T05:34:36.585Z,4.40
2023-04-26T05:37:03.657Z,4.40
2023-04-26T05:39:31.809Z,4.17
2023-04-26T05:41:58.535Z,4.47
2023-04-26T05:44:25.384Z,4.85
2023-04-26T05:46:52.055Z,4.63
2023-04-26T05:49:18.810Z,4.23
2023-04-26T05:51:45.555Z,4.60
2023-04-26T05:54:12.283Z,4.43
2023-04-26T05:56:39.020Z,4.55
2023-04-26T05:59:05.759Z,3.92
2023-04-26T06:01:32.663Z,4.17
2023-04-26T06:04:00.977Z,4.30
2023-04-26T06:06:28.410Z,4.07
2023-04-26T06:08:55.711Z,3.95
2023-04-26T06:11:22.437Z,3.60
2023-04-26T06:13:49.170Z,3.97
2023-04-26T06:16:16.568Z,4.00
2023-04-26T06:18:43.834Z,3.90
2023-04-26T06:21:10.675Z,3.80
2023-04-26T06:23:37.375Z,4.57
2023-04-26T06:26:04.096Z,3.95
2023-04-26T06:28:30.926Z,4.18
2023-04-26T06:30:57.697Z,4.28
2023-04-26T06:33:24.498Z,3.60
2023-04-26T06:35:51.608Z,3.58
2023-04-26T06:38:18.265Z,4.03
2023-04-26T06:40:44.916Z,3.50
2023-04-26T06:43:11.625Z,3.25
2023-04-26T06:45:38.413Z,3.27
2023-04-26T06:48:05.549Z,2.88
2023-04-26T06:50:32.364Z,2.58
2023-04-26T06:52:59.051Z,2.55
2023-04-26T06:55:25.826Z,2.88
2023-04-26T06:57:52.565Z,2.60
2023-04-26T07:00:19.620Z,2.35
2023-04-26T07:02:46.414Z,2.25
2023-04-26T07:05:15.227Z,2.40
2023-04-26T07:07:42.015Z,2.35
2023-04-26T07:10:09.545Z,2.38
2023-04-26T07:12:36.497Z,2.67
2023-04-26T07:15:03.987Z,2.40
2023-04-26T07:17:30.926Z,2.40
2023-04-26T07:19:57.776Z,2.30
2023-04-26T07:22:24.624Z,2.30
2023-04-26T07:24:51.360Z,2.42
2023-04-26T07:27:18.025Z,2.47
2023-04-26T07:29:44.670Z,2.40
2023-04-26T07:32:11.571Z,2.28
2023-04-26T07:34:38.266Z,2.03
2023-04-26T07:37:05.006Z,2.40
2023-04-26T07:39:31.687Z,2.45
2023-04-26T07:41:58.380Z,2.42
2023-04-26T07:44:25.101Z,2.10
2023-04-26T07:46:51.845Z,1.80
2023-04-26T07:49:18.533Z,2.15
2023-04-26T07:51:45.720Z,2.10
2023-04-26T07:54:12.578Z,2.13
2023-04-26T07:56:39.277Z,2.00
2023-04-26T07:59:06.016Z,2.10
2023-04-26T08:01:32.670Z,2.00
2023-04-26T08:03:59.761Z,1.70
2023-04-26T08:06:27.702Z,2.15
2023-04-26T08:08:54.459Z,2.13
2023-04-26T08:11:21.737Z,2.25
2023-04-26T08:13:48.579Z,1.75
2023-04-26T08:16:15.460Z,2.15
2023-04-26T08:18:44.662Z,2.20
2023-04-26T08:21:12.856Z,2.30
2023-04-26T08:23:39.593Z,2.10
2023-04-26T08:26:06.590Z,2.28
2023-04-26T08:28:33.443Z,2.15
2023-04-26T08:31:00.381Z,2.10
2023-04-26T08:33:27.156Z,2.00
2023-04-26T08:35:53.887Z,2.00
2023-04-26T08:38:22.674Z,2.08
2023-04-26T08:40:51.220Z,2.00
2023-04-26T08:43:17.909Z,1.88
2023-04-26T08:45:47.525Z,1.88
2023-04-26T08:48:16.127Z,1.80
2023-04-26T08:50:45.573Z,1.98
2023-04-26T08:53:16.964Z,1.55
2023-04-26T08:55:49.392Z,2.10
2023-04-26T08:58:17.747Z,1.80
2023-04-26T09:00:46.499Z,1.75
2023-04-26T09:03:13.723Z,1.92
2023-04-26T09:05:44.186Z,2.30
2023-04-26T09:08:16.164Z,1.70
2023-04-26T09:10:42.905Z,1.70
2023-04-26T09:13:09.625Z,2.20
2023-04-26T09:15:37.853Z,1.70
2023-04-26T09:18:21.677Z,1.70
2023-04-26T09:21:06.791Z,1.52
2023-04-26T09:23:33.832Z,1.70
2023-04-26T09:26:17.390Z,2.05
2023-04-26T09:28:44.395Z,1.75
2023-04-26T09:31:11.268Z,1.75
2023-04-26T09:33:59.511Z,1.70
2023-04-26T09:36:26.261Z,1.83
2023-04-26T09:38:53.157Z,1.60
2023-04-26T09:41:20.000Z,1.70
2023-04-26T09:43:48.270Z,1.50
2023-04-26T09:46:23.965Z,1.52
2023-04-26T09:49:02.099Z,1.40
2023-04-26T09:51:28.840Z,1.70
2023-04-26T13:47:10.988Z,1.73
2023-04-26T13:49:39.535Z,2.03
2023-04-26T13:52:06.379Z,1.92
2023-04-26T13:54:33.116Z,1.95
2023-04-26T13:56:59.812Z,1.90
2023-04-26T13:59:26.773Z,1.95
2023-04-26T14:01:55.687Z,2.05
2023-04-26T14:04:22.773Z,1.95
2023-04-26T14:06:49.544Z,1.90
2023-04-26T14:09:16.439Z,2.10
2023-04-26T14:11:43.359Z,2.45
2023-04-26T14:14:11.188Z,2.10
2023-04-26T14:16:37.935Z,2.10
2023-04-26T14:19:04.647Z,1.90
2023-04-26T14:21:31.644Z,2.10
2023-04-26T14:23:58.354Z,1.95
2023-04-26T14:26:26.100Z,1.85
2023-04-26T14:28:52.788Z,2.20
2023-04-26T14:31:19.775Z,2.03
2023-04-26T14:33:46.634Z,2.13
2023-04-26T14:36:13.346Z,1.88
2023-04-26T14:38:43.089Z,1.88
2023-04-26T14:41:14.432Z,2.10
2023-04-26T14:43:41.274Z,1.88
2023-04-26T14:46:08.141Z,2.10
2023-04-26T14:48:34.885Z,2.00
2023-04-26T14:51:01.615Z,1.85
2023-04-26T14:53:28.393Z,2.00
2023-04-26T14:55:57.425Z,1.70
2023-04-26T14:58:25.266Z,1.75
2023-04-26T15:00:53.215Z,1.90
2023-04-26T15:03:20.648Z,2.30
2023-04-26T15:05:47.623Z,2.55
2023-04-26T15:08:14.807Z,1.98
2023-04-26T15:10:41.687Z,2.03
2023-04-26T15:13:08.417Z,1.70
2023-04-26T15:15:37.540Z,2.10
2023-04-26T15:18:04.551Z,1.88
2023-04-26T15:20:31.267Z,1.83
2023-04-26T15:22:57.979Z,2.00
2023-04-26T15:25:24.657Z,2.10
2023-04-26T15:27:51.581Z,2.20
2023-04-26T15:30:18.267Z,1.90
2023-04-26T15:32:48.459Z,1.85
2023-04-26T15:35:15.656Z,1.87
2023-04-26T15:37:44.044Z,2.00
2023-04-26T15:40:12.013Z,1.90
2023-04-26T15:42:39.289Z,1.85
2023-04-26T15:45:06.943Z,2.00
2023-04-26T15:47:35.698Z,1.80
2023-04-26T15:50:06.476Z,1.70
2023-04-26T15:52:38.546Z,1.80
2023-04-26T15:55:07.204Z,2.00
2023-04-26T15:57:34.520Z,2.30
2023-04-26T16:00:01.797Z,2.10
2023-04-26T16:02:28.619Z,2.00
2023-04-26T16:04:56.392Z,1.85
2023-04-26T16:07:23.572Z,2.00
2023-04-26T16:09:50.338Z,1.73
2023-04-26T16:12:17.068Z,2.20
2023-04-26T16:14:43.917Z,2.00
2023-04-26T16:17:10.666Z,2.00
2023-04-26T16:19:37.377Z,2.05
2023-04-26T16:22:04.244Z,2.13
2023-04-26T16:24:31.068Z,2.10
2023-04-26T16:26:57.895Z,2.20
2023-04-26T16:29:25.191Z,1.92
2023-04-26T16:31:52.602Z,2.00
2023-04-26T16:34:20.062Z,2.15
2023-04-26T16:36:46.777Z,2.15
2023-04-26T16:39:15.794Z,2.00
2023-04-26T16:41:42.983Z,2.22
2023-04-26T16:44:09.777Z,2.03
2023-04-26T16:46:36.927Z,2.05
2023-04-26T16:49:09.286Z,2.33
2023-04-26T16:51:37.977Z,2.03
2023-04-26T16:54:04.903Z,2.08
2023-04-26T16:56:32.222Z,2.60
2023-04-26T16:58:59.498Z,2.35
2023-04-26T17:01:26.831Z,2.10
2023-04-26T17:03:54.464Z,1.90
2023-04-26T17:06:21.328Z,1.98
2023-04-26T17:08:48.438Z,2.00
2023-04-26T17:11:16.228Z,2.22
2023-04-26T17:13:43.585Z,2.10
2023-04-26T17:16:10.564Z,2.03
2023-04-26T17:18:37.592Z,2.72
2023-04-26T17:21:05.701Z,2.65
2023-04-26T17:23:33.592Z,2.00
2023-04-26T17:26:01.673Z,2.30
2023-04-26T17:28:28.822Z,1.83
2023-04-26T17:30:55.502Z,2.10
2023-04-26T17:33:22.315Z,2.00
2023-04-26T17:35:49.031Z,2.15
2023-04-26T17:38:16.060Z,2.00
2023-04-26T17:40:42.804Z,1.92
2023-04-26T17:43:09.504Z,1.53
2023-04-26T17:45:37.739Z,2.05
2023-04-26T17:48:05.274Z,1.83
2023-04-26T17:50:31.972Z,1.88
2023-04-26T17:52:58.688Z,1.92
2023-04-26T17:55:25.375Z,1.57
2023-04-26T17:57:52.033Z,1.60
2023-04-26T18:00:19.050Z,1.60
2023-04-26T18:02:46.263Z,1.48
2023-04-26T18:05:13.450Z,1.90
2023-04-26T18:07:40.320Z,1.53
2023-04-26T18:10:08.022Z,1.45
2023-04-26T18:12:35.342Z,1.40
2023-04-26T18:15:02.120Z,1.50
2023-04-26T18:17:28.910Z,1.65
2023-04-26T18:19:55.845Z,1.90
2023-04-26T18:22:22.614Z,1.60
2023-04-26T18:24:49.283Z,1.73
2023-04-26T18:27:16.212Z,3.65
2023-04-26T18:29:43.147Z,3.30
2023-04-26T18:32:09.926Z,1.60
2023-04-26T18:34:36.622Z,1.77
2023-04-26T18:37:03.281Z,1.83
2023-04-26T18:39:30.377Z,1.50
2023-04-26T18:41:57.289Z,2.00
2023-04-26T18:44:24.037Z,1.77
2023-04-26T18:46:54.933Z,1.80
2023-04-26T18:49:23.078Z,2.10
2023-04-26T18:51:49.845Z,1.88
2023-04-26T18:54:16.693Z,1.88
2023-04-26T18:56:44.006Z,1.73
2023-04-26T18:59:10.995Z,2.00
2023-04-26T19:01:37.909Z,1.73
2023-04-26T19:04:04.853Z,1.80
2023-04-26T19:06:31.643Z,2.00
2023-04-26T19:08:59.498Z,2.30
2023-04-26T19:11:26.730Z,2.00
2023-04-26T19:13:53.504Z,2.20
2023-04-26T19:16:20.305Z,2.38
2023-04-26T19:18:47.306Z,2.00
2023-04-26T19:21:13.958Z,1.98
2023-04-26T19:23:40.818Z,2.15
2023-04-26T19:26:09.739Z,1.90
2023-04-26T19:28:37.916Z,1.80
2023-04-26T19:31:05.031Z,2.33
2023-04-26T19:33:32.461Z,2.00
2023-04-26T19:35:59.236Z,2.28
2023-04-26T19:38:25.962Z,2.65
2023-04-26T19:40:52.991Z,2.28
2023-04-26T19:43:20.085Z,2.22
2023-04-26T19:45:47.408Z,2.73
2023-04-26T19:48:14.178Z,2.20
2023-04-26T19:50:42.659Z,2.25
2023-04-26T19:53:11.131Z,2.50
2023-04-26T19:55:38.072Z,2.55
2023-04-26T19:58:05.491Z,2.47
2023-04-26T20:00:35.588Z,2.23
2023-04-26T20:03:03.018Z,2.57
2023-04-26T20:05:29.977Z,2.60
2023-04-26T20:07:57.430Z,3.00
2023-04-26T20:10:24.263Z,2.58
2023-04-26T20:12:50.985Z,2.60
2023-04-26T20:15:17.994Z,2.28
2023-04-26T20:17:44.758Z,2.40
2023-04-26T20:20:12.162Z,2.45
2023-04-26T20:22:39.773Z,2.55
2023-04-26T20:25:07.141Z,2.00
2023-04-26T20:27:33.983Z,2.40
2023-04-26T20:30:01.045Z,2.35
2023-04-26T20:32:28.123Z,2.60
2023-04-26T20:34:54.941Z,2.27
2023-04-26T20:37:21.990Z,2.55
2023-04-26T20:39:48.982Z,2.50
2023-04-26T20:42:16.072Z,2.60
2023-04-26T20:44:43.131Z,2.92
2023-04-26T20:47:09.843Z,2.83
2023-04-26T20:49:36.733Z,2.70
2023-04-26T20:52:03.763Z,2.60
2023-04-26T20:54:31.221Z,3.00
2023-04-26T20:56:57.946Z,3.25
2023-04-26T20:59:25.631Z,3.47
2023-04-26T21:01:53.818Z,3.60
2023-04-26T21:04:21.078Z,4.20
2023-04-26T21:06:48.125Z,4.35
2023-04-26T21:09:15.142Z,4.20
2023-04-26T21:11:46.319Z,3.78
2023-04-26T21:14:13.739Z,4.45
2023-04-26T21:16:40.749Z,4.28
2023-04-26T21:19:08.371Z,4.20
2023-04-26T21:21:35.749Z,4.13
2023-04-26T21:24:03.951Z,4.03
2023-04-26T21:26:31.167Z,3.70
2023-04-26T21:28:57.937Z,3.63
2023-04-26T21:31:24.774Z,3.72
2023-04-26T21:33:51.433Z,3.92
2023-04-26T21:36:18.263Z,4.30
2023-04-26T21:38:45.068Z,3.92
2023-04-26T21:41:11.748Z,3.60
2023-04-26T21:43:38.623Z,4.00
2023-04-26T21:46:06.577Z,3.72
2023-04-26T21:48:33.330Z,4.07
2023-04-26T21:50:59.999Z,3.92
2023-04-26T21:53:27.051Z,4.20
2023-04-26T21:55:54.437Z,4.05
2023-04-26T21:58:21.950Z,4.20
2023-04-26T22:00:49.527Z,4.20
2023-04-26T22:03:17.148Z,4.20
2023-04-26T22:05:44.113Z,4.20
2023-04-26T22:08:11.039Z,4.20
2023-04-26T22:10:37.915Z,4.43
2023-04-26T22:13:05.331Z,4.80
2023-04-26T22:15:32.141Z,4.03
2023-04-26T22:17:58.932Z,4.22
2023-04-26T22:20:26.483Z,3.70
2023-04-26T22:22:53.705Z,3.72
2023-04-26T22:25:20.696Z,4.50
2023-04-26T22:27:47.702Z,4.07
2023-04-26T22:30:24.679Z,4.00
2023-04-26T22:32:55.699Z,4.28
2023-04-26T22:35:23.962Z,4.20
2023-04-26T22:37:51.093Z,4.35
2023-04-26T22:40:17.935Z,4.00
2023-04-26T22:42:45.098Z,4.03
2023-04-26T22:45:12.932Z,4.15
2023-04-26T22:47:40.799Z,4.22
2023-04-26T22:50:08.135Z,4.53
2023-04-26T22:52:35.701Z,4.40
2023-04-26T22:55:02.950Z,4.05
2023-04-26T22:57:30.929Z,3.90
2023-04-26T22:59:57.958Z,4.43
2023-04-26T23:02:24.949Z,4.28
2023-04-26T23:04:52.003Z,4.13
2023-04-26T23:07:18.788Z,4.22
2023-04-26T23:09:45.682Z,4.25
2023-04-26T23:12:18.423Z,4.40
2023-04-26T23:14:45.119Z,4.45
2023-04-26T23:17:12.157Z,4.23
2023-04-26T23:19:38.938Z,5.00
2023-04-26T23:22:05.575Z,4.35
2023-04-26T23:24:32.203Z,4.00
2023-04-26T23:26:58.939Z,4.18
2023-04-26T23:29:25.621Z,4.53
2023-04-26T23:31:53.610Z,4.45
2023-04-26T23:34:20.306Z,4.50
2023-04-26T23:36:47.157Z,5.17
2023-04-26T23:39:14.032Z,4.43
2023-04-26T23:41:40.982Z,4.68
2023-04-26T23:44:07.637Z,4.43
2023-04-26T23:46:34.423Z,4.40
2023-04-26T23:49:01.118Z,4.50
2023-04-26T23:51:28.030Z,4.50
2023-04-26T23:53:54.807Z,4.93
2023-04-26T23:56:21.565Z,4.47
2023-04-26T23:58:48.242Z,4.13
